createdAt,value
2018-07-20T00:00:28.656Z,100329.32
2018-07-20T00:02:59.412Z,100325.10
2018-07-20T00:05:30.059Z,100322.09
2018-07-20T00:08:00.793Z,100322.81
2018-07-20T00:10:31.497Z,100321.13
2018-07-20T00:13:02.176Z,100320.44
2018-07-20T00:15:32.896Z,100318.23
2018-07-20T00:18:03.697Z,100313.39
2018-07-20T00:20:34.393Z,100314.02
2018-07-20T00:23:05.094Z,100313.63
2018-07-20T00:25:35.845Z,100307.09
2018-07-20T00:28:06.651Z,100304.62
2018-07-20T00:30:37.321Z,100309.85
2018-07-20T00:33:08.076Z,100311.08
2018-07-20T00:35:38.764Z,100308.42
2018-07-20T00:38:09.528Z,100312.08
2018-07-20T00:40:40.223Z,100302.84
2018-07-20T00:43:10.920Z,100298.22
2018-07-20T00:45:41.647Z,100298.22
2018-07-20T00:48:12.385Z,100290.47
2018-07-20T00:50:43.101Z,100282.33
2018-07-20T00:53:13.796Z,100292.53
2018-07-20T00:55:44.484Z,100283.65
2018-07-20T00:58:15.297Z,100284.05
2018-07-20T01:00:46.031Z,100283.19
2018-07-20T01:03:16.735Z,100281.02
2018-07-20T01:05:47.446Z,100278.46
2018-07-20T01:08:18.193Z,100272.50
2018-07-20T01:10:48.927Z,100268.85
2018-07-20T01:13:19.617Z,100265.45
2018-07-20T01:15:50.325Z,100270.80
2018-07-20T01:18:20.992Z,100271.16
2018-07-20T01:20:51.740Z,100273.23
2018-07-20T01:23:22.405Z,100272.25
2018-07-20T01:25:53.063Z,100273.33
2018-07-20T01:28:23.797Z,100280.84
2018-07-20T01:30:54.558Z,100273.54
2018-07-20T01:33:25.268Z,100272.17
2018-07-20T01:35:56.030Z,100277.64
2018-07-20T01:38:26.731Z,100278.12
2018-07-20T01:40:57.374Z,100277.87
2018-07-20T01:43:28.084Z,100275.94
2018-07-20T01:45:58.786Z,100278.00
2018-07-20T01:48:29.662Z,100279.81
2018-07-20T01:51:00.412Z,100279.08
2018-07-20T01:53:31.096Z,100277.63
2018-07-20T01:56:01.859Z,100274.83
2018-07-20T01:58:32.568Z,100267.17
2018-07-20T02:01:03.290Z,100275.69
2018-07-20T02:03:33.970Z,100274.32
2018-07-20T02:06:04.682Z,100270.67
2018-07-20T02:08:35.389Z,100268.61
2018-07-20T02:11:06.144Z,100267.87
2018-07-20T02:13:36.803Z,100272.61
2018-07-20T02:16:07.572Z,100273.81
2018-07-20T02:18:38.279Z,100264.35
2018-07-20T02:21:09.118Z,100257.91
2018-07-20T02:23:39.752Z,100258.89
2018-07-20T02:26:10.495Z,100260.22
2018-07-20T02:28:41.166Z,100258.25
2018-07-20T02:31:11.908Z,100256.31
2018-07-20T02:33:42.641Z,100253.87
2018-07-20T02:36:13.425Z,100247.08
2018-07-20T02:38:44.111Z,100245.97
2018-07-20T02:41:14.864Z,100242.70
2018-07-20T02:43:45.657Z,100242.44
2018-07-20T02:46:16.387Z,100242.09
2018-07-20T02:48:47.075Z,100249.92
2018-07-20T02:51:17.832Z,100249.31
2018-07-20T02:53:48.449Z,100243.72
2018-07-20T02:56:19.150Z,100248.41
2018-07-20T02:58:49.979Z,100246.05
2018-07-20T03:01:20.750Z,100238.78
2018-07-20T03:03:51.427Z,100241.30
2018-07-20T03:06:22.269Z,100244.56
2018-07-20T03:08:52.919Z,100244.19
2018-07-20T03:11:23.725Z,100243.92
2018-07-20T03:13:54.406Z,100237.25
2018-07-20T03:16:25.066Z,100244.86
2018-07-20T03:18:55.772Z,100243.39
2018-07-20T03:21:26.531Z,100250.32
2018-07-20T03:23:57.813Z,100249.33
2018-07-20T03:26:28.552Z,100251.17
2018-07-20T03:28:59.228Z,100251.52
2018-07-20T03:31:29.952Z,100247.00
2018-07-20T03:34:00.667Z,100241.53
2018-07-20T03:36:31.358Z,100241.18
2018-07-20T03:39:02.085Z,100246.17
2018-07-20T03:41:32.781Z,100243.51
2018-07-20T03:44:03.504Z,100237.26
2018-07-20T03:46:34.214Z,100229.81
2018-07-20T03:49:05.055Z,100228.20
2018-07-20T03:51:35.752Z,100232.81
2018-07-20T03:54:06.476Z,100224.88
2018-07-20T03:56:37.168Z,100220.15
2018-07-20T03:59:07.999Z,100222.69
2018-07-20T04:01:38.703Z,100223.55
2018-07-20T04:04:09.347Z,100221.16
2018-07-20T04:06:40.017Z,100220.23
2018-07-20T04:09:11.611Z,100218.61
2018-07-20T04:11:42.432Z,100217.16
2018-07-20T04:14:13.211Z,100213.95
2018-07-20T04:16:43.900Z,100215.28
2018-07-20T04:19:14.644Z,100221.98
2018-07-20T04:21:45.306Z,100215.41
2018-07-20T04:24:16.071Z,100212.34
2018-07-20T04:26:46.754Z,100220.61
2018-07-20T04:29:17.671Z,100222.10
2018-07-20T04:31:48.347Z,100219.31
2018-07-20T04:34:19.043Z,100212.91
2018-07-20T04:36:49.675Z,100213.03
2018-07-20T04:39:20.320Z,100215.12
2018-07-20T04:41:51.015Z,100219.38
2018-07-20T04:44:21.700Z,100207.76
2018-07-20T04:46:52.364Z,100214.05
2018-07-20T04:49:23.109Z,100212.36
2018-07-20T04:51:53.790Z,100216.70
2018-07-20T04:54:24.460Z,100207.86
2018-07-20T04:56:55.124Z,100207.25
2018-07-20T04:59:25.858Z,100211.38
2018-07-20T05:01:56.521Z,100210.20
2018-07-20T05:04:27.189Z,100209.94
2018-07-20T05:06:57.558Z,100206.67
2018-07-20T05:09:28.149Z,100200.88
2018-07-20T05:11:58.855Z,100200.27
2018-07-20T05:14:29.552Z,100202.58
2018-07-20T05:17:01.208Z,100203.92
2018-07-20T05:19:31.971Z,100201.10
2018-07-20T05:22:02.766Z,100203.16
2018-07-20T05:24:33.416Z,100198.33
2018-07-20T05:27:04.110Z,100193.27
2018-07-20T05:29:34.840Z,100196.40
2018-07-20T05:32:05.561Z,100191.47
2018-07-20T05:34:36.203Z,100189.66
2018-07-20T05:37:06.955Z,100191.94
2018-07-20T05:39:37.708Z,100192.30
2018-07-20T05:42:08.578Z,100191.42
2018-07-20T05:44:39.607Z,100190.58
2018-07-20T05:47:10.363Z,100193.08
2018-07-20T05:49:41.156Z,100194.28
2018-07-20T05:52:11.968Z,100193.88
2018-07-20T05:54:42.751Z,100189.37
2018-07-20T05:57:13.449Z,100188.24
2018-07-20T05:59:44.268Z,100191.02
2018-07-20T06:02:15.468Z,100191.10
2018-07-20T06:04:46.470Z,100189.61
2018-07-20T06:07:17.175Z,100193.19
2018-07-20T06:09:47.852Z,100192.79
2018-07-20T06:12:18.470Z,100193.77
2018-07-20T06:14:49.111Z,100200.14
2018-07-20T06:17:19.740Z,100196.45
2018-07-20T06:19:50.396Z,100201.43
2018-07-20T06:22:21.092Z,100199.48
2018-07-20T06:24:51.768Z,100195.67
2018-07-20T06:27:22.416Z,100196.46
2018-07-20T06:29:53.109Z,100196.48
2018-07-20T06:32:23.816Z,100201.09
2018-07-20T06:34:54.427Z,100200.11
2018-07-20T06:37:25.057Z,100193.34
2018-07-20T06:39:55.720Z,100200.83
2018-07-20T06:42:26.383Z,100200.01
2018-07-20T06:44:57.068Z,100195.41
2018-07-20T06:47:27.780Z,100194.44
2018-07-20T06:49:58.408Z,100200.91
2018-07-20T06:52:29.085Z,100201.56
2018-07-20T06:54:59.721Z,100192.47
2018-07-20T06:57:30.427Z,100201.02
2018-07-20T07:00:01.079Z,100196.43
2018-07-20T07:05:00.763Z,100196.89
2018-07-20T07:07:31.288Z,100200.42
2018-07-20T07:10:01.954Z,100200.00
2018-07-20T07:12:32.577Z,100203.55
2018-07-20T07:15:03.307Z,100201.78
2018-07-20T07:17:33.944Z,100195.94
2018-07-20T07:20:04.682Z,100198.23
2018-07-20T07:22:35.307Z,100191.34
2018-07-20T07:25:06.035Z,100188.67
2018-07-20T07:27:36.664Z,100195.84
2018-07-20T07:30:07.338Z,100197.33
2018-07-20T07:32:38.022Z,100194.08
2018-07-20T07:35:08.706Z,100201.41
2018-07-20T07:37:39.370Z,100199.65
2018-07-20T07:40:10.016Z,100195.44
2018-07-20T07:42:40.733Z,100198.61
2018-07-20T07:45:12.072Z,100200.83
2018-07-20T07:47:42.731Z,100193.78
2018-07-20T07:50:13.416Z,100191.00
2018-07-20T07:52:44.086Z,100189.66
2018-07-20T07:55:14.720Z,100191.02
2018-07-20T07:57:45.414Z,100187.45
2018-07-20T08:00:16.029Z,100185.59
2018-07-20T08:02:46.704Z,100186.08
2018-07-20T08:05:17.367Z,100185.42
2018-07-20T08:07:48.043Z,100181.50
2018-07-20T08:10:18.777Z,100179.41
2018-07-20T08:12:49.537Z,100177.59
2018-07-20T08:15:20.224Z,100177.53
2018-07-20T08:17:50.840Z,100175.43
2018-07-20T08:20:21.528Z,100170.39
2018-07-20T08:22:52.210Z,100172.12
2018-07-20T08:25:22.952Z,100168.44
2018-07-20T08:27:53.631Z,100159.06
2018-07-20T08:30:24.361Z,100165.63
2018-07-20T08:32:55.008Z,100167.03
2018-07-20T08:35:25.678Z,100161.24
2018-07-20T08:37:56.328Z,100166.06
2018-07-20T08:40:26.986Z,100165.11
2018-07-20T08:42:57.706Z,100164.72
2018-07-20T08:45:28.362Z,100159.16
2018-07-20T08:47:58.983Z,100166.10
2018-07-20T08:50:29.630Z,100166.72
2018-07-20T08:53:00.279Z,100158.92
2018-07-20T08:55:30.906Z,100159.30
2018-07-20T08:58:01.533Z,100159.67
2018-07-20T09:00:32.286Z,100156.42
2018-07-20T09:03:02.906Z,100157.45
2018-07-20T09:05:33.578Z,100151.59
2018-07-20T09:08:04.214Z,100149.78
2018-07-20T09:10:34.880Z,100149.05
2018-07-20T09:13:05.622Z,100149.02
2018-07-20T09:15:36.298Z,100145.30
2018-07-20T09:18:07.034Z,100145.13
2018-07-20T09:20:37.691Z,100140.91
2018-07-20T09:23:08.392Z,100136.67
2018-07-20T09:25:39.035Z,100148.05
2018-07-20T09:28:09.683Z,100135.84
2018-07-20T09:30:40.427Z,100135.33
2018-07-20T09:33:11.064Z,100136.77
2018-07-20T09:35:41.706Z,100140.58
2018-07-20T09:38:12.634Z,100137.95
2018-07-20T09:40:43.272Z,100136.81
2018-07-20T09:43:14.495Z,100137.44
2018-07-20T09:45:45.128Z,100141.64
2018-07-20T09:48:15.760Z,100141.09
2018-07-20T09:50:46.455Z,100132.88
2018-07-20T09:53:17.111Z,100131.82
2018-07-20T09:55:47.790Z,100129.64
2018-07-20T09:58:18.489Z,100133.97
2018-07-20T10:00:50.655Z,100128.89
2018-07-20T10:03:22.194Z,100126.52
2018-07-20T10:05:52.854Z,100128.25
2018-07-20T10:08:23.532Z,100123.45
2018-07-20T10:10:54.199Z,100119.55
2018-07-20T10:13:24.861Z,100115.60
2018-07-20T10:15:55.487Z,100118.71
2018-07-20T10:18:26.230Z,100116.22
2018-07-20T10:20:56.883Z,100111.59
2018-07-20T10:23:27.504Z,100108.03
2018-07-20T10:25:58.255Z,100108.89
2018-07-20T10:28:28.832Z,100108.53
2018-07-20T10:32:02.769Z,100114.76
2018-07-20T10:34:33.412Z,100112.66
2018-07-20T10:37:04.085Z,100103.69
2018-07-20T10:39:34.787Z,100106.62
2018-07-20T10:42:05.448Z,100105.09
2018-07-20T10:44:36.115Z,100105.08
2018-07-20T10:47:06.865Z,100105.88
2018-07-20T10:49:37.524Z,100106.86
2018-07-20T10:52:39.919Z,100097.27
2018-07-20T10:55:10.650Z,100098.41
2018-07-20T10:57:41.370Z,100099.88
2018-07-20T11:00:12.055Z,100094.91
2018-07-20T11:02:42.722Z,100093.56
2018-07-20T11:05:13.423Z,100088.34
2018-07-20T11:07:44.211Z,100096.21
2018-07-20T11:10:14.825Z,100086.91
2018-07-20T11:12:45.505Z,100083.77
2018-07-20T11:15:16.164Z,100089.77
2018-07-20T11:17:46.935Z,100075.41
2018-07-20T11:20:17.585Z,100074.80
2018-07-20T11:22:48.280Z,100073.76
2018-07-20T11:25:18.939Z,100069.56
2018-07-20T11:27:49.874Z,100064.56
2018-07-20T11:30:20.541Z,100073.02
2018-07-20T11:32:51.199Z,100070.14
2018-07-20T11:35:21.863Z,100062.52
2018-07-20T11:37:52.530Z,100061.95
2018-07-20T11:40:23.205Z,100060.25
2018-07-20T11:42:53.879Z,100051.17
2018-07-20T11:45:24.579Z,100057.84
2018-07-20T11:47:55.234Z,100049.13
2018-07-20T11:50:25.932Z,100050.56
2018-07-20T11:52:56.609Z,100049.00
2018-07-20T11:55:27.262Z,100037.16
2018-07-20T11:57:57.951Z,100037.10
2018-07-20T12:00:28.609Z,100041.71
2018-07-20T12:02:59.320Z,100037.14
2018-07-20T12:05:29.938Z,100034.23
2018-07-20T12:08:00.579Z,100035.75
2018-07-20T12:10:31.238Z,100026.14
2018-07-20T12:13:01.845Z,100029.22
2018-07-20T12:15:32.585Z,100022.78
2018-07-20T12:18:03.242Z,100017.64
2018-07-20T12:20:33.937Z,100014.83
2018-07-20T12:23:04.598Z,100010.78
2018-07-20T12:25:35.260Z,100017.52
2018-07-20T12:28:05.989Z,100021.42
2018-07-20T12:30:36.294Z,100023.81
2018-07-20T12:33:07.178Z,100014.09
2018-07-20T12:35:37.919Z,100012.36
2018-07-20T12:38:08.624Z,100000.41
2018-07-20T12:40:39.236Z,100000.81
2018-07-20T12:43:09.966Z,100001.56
2018-07-20T12:45:40.589Z,99994.41
2018-07-20T12:48:11.230Z,99999.42
2018-07-20T12:50:41.854Z,99995.57
2018-07-20T12:53:12.505Z,99992.21
2018-07-20T12:55:43.119Z,99992.86
2018-07-20T12:58:13.783Z,99992.57
2018-07-20T13:00:44.448Z,99988.38
2018-07-20T13:03:15.062Z,99982.55
2018-07-20T13:05:45.727Z,99978.84
2018-07-20T13:08:16.332Z,99976.75
2018-07-20T13:10:46.983Z,99973.59
2018-07-20T13:13:17.627Z,99977.89
2018-07-20T13:15:48.319Z,99971.27
2018-07-20T13:18:19.048Z,99978.37
2018-07-20T13:20:49.762Z,99974.67
2018-07-20T13:23:20.443Z,99971.65
2018-07-20T13:25:51.131Z,99963.70
2018-07-20T13:28:21.779Z,99969.31
2018-07-20T13:30:52.416Z,99969.25
2018-07-20T13:33:23.068Z,99964.73
2018-07-20T13:35:53.783Z,99959.28
2018-07-20T13:38:24.498Z,99956.06
2018-07-20T13:40:55.870Z,99953.05
2018-07-20T13:43:26.539Z,99947.17
2018-07-20T13:45:57.161Z,99954.68
2018-07-20T13:48:27.831Z,99946.97
2018-07-20T13:50:58.546Z,99949.75
2018-07-20T13:53:29.195Z,99948.50
2018-07-20T13:55:59.827Z,99945.57
2018-07-20T13:58:30.533Z,99943.23
2018-07-20T14:01:01.169Z,99940.07
2018-07-20T14:03:31.798Z,99935.59
2018-07-20T14:06:02.475Z,99936.00
2018-07-20T14:08:33.158Z,99935.53
2018-07-20T14:11:03.838Z,99927.17
2018-07-20T14:13:34.258Z,99934.94
2018-07-20T14:16:04.959Z,99930.28
2018-07-20T14:18:35.702Z,99930.14
2018-07-20T14:21:06.388Z,99928.25
2018-07-20T14:23:37.098Z,99933.61
2018-07-20T14:26:08.068Z,99925.44
2018-07-20T14:28:38.777Z,99927.27
2018-07-20T14:31:09.575Z,99921.47
2018-07-20T14:33:40.326Z,99914.00
2018-07-20T14:36:11.035Z,99916.83
2018-07-20T14:38:41.860Z,99912.11
2018-07-20T14:41:12.576Z,99915.27
2018-07-20T14:43:43.359Z,99899.86
2018-07-20T14:46:14.104Z,99900.30
2018-07-20T14:48:44.990Z,99894.31
2018-07-20T14:51:15.694Z,99892.64
2018-07-20T14:53:46.452Z,99893.75
2018-07-20T14:56:17.282Z,99884.95
2018-07-20T14:58:48.008Z,99886.63
2018-07-20T15:01:18.709Z,99883.14
2018-07-20T15:03:49.544Z,99883.65
2018-07-20T15:06:20.279Z,99884.42
2018-07-20T15:08:51.109Z,99877.19
2018-07-20T15:11:21.806Z,99876.30
2018-07-20T15:13:52.492Z,99870.84
2018-07-20T15:16:23.237Z,99867.27
2018-07-20T15:18:53.993Z,99862.27
2018-07-20T15:21:24.701Z,99861.05
2018-07-20T15:23:55.736Z,99862.20
2018-07-20T15:26:26.537Z,99863.28
2018-07-20T15:28:57.243Z,99866.79
2018-07-20T15:31:28.178Z,99863.36
2018-07-20T15:33:59.526Z,99866.69
2018-07-20T15:36:30.340Z,99861.91
2018-07-20T15:39:01.042Z,99852.16
2018-07-20T15:41:31.756Z,99852.11
2018-07-20T15:44:02.523Z,99850.14
2018-07-20T15:46:33.294Z,99852.62
2018-07-20T15:49:03.942Z,99850.37
2018-07-20T15:53:35.052Z,99843.23
2018-07-20T15:54:05.510Z,99846.47
2018-07-20T15:56:36.267Z,99842.00
2018-07-20T15:59:07.061Z,99851.41
2018-07-20T16:01:37.832Z,99849.14
2018-07-20T16:04:08.688Z,99850.02
2018-07-20T16:06:39.423Z,99849.61
2018-07-20T16:09:12.499Z,99849.13
2018-07-20T16:11:43.343Z,99843.84
2018-07-20T16:14:14.057Z,99838.56
2018-07-20T16:16:44.744Z,99840.64
2018-07-20T16:19:15.470Z,99835.68
2018-07-20T16:21:46.238Z,99829.58
2018-07-20T16:24:16.950Z,99839.19
2018-07-20T16:26:47.656Z,99832.31
2018-07-20T16:29:18.376Z,99834.33
2018-07-20T16:31:49.053Z,99833.92
2018-07-20T16:34:19.810Z,99827.16
2018-07-20T16:36:50.475Z,99829.23
2018-07-20T16:39:21.501Z,99826.06
2018-07-20T16:41:52.169Z,99830.95
2018-07-20T16:44:22.824Z,99830.44
2018-07-20T16:46:53.551Z,99833.82
2018-07-20T16:49:24.332Z,99827.94
2018-07-20T16:51:55.047Z,99822.44
2018-07-20T16:54:25.774Z,99820.33
2018-07-20T16:56:56.465Z,99816.47
2018-07-20T16:59:27.165Z,99813.94
2018-07-20T17:01:57.960Z,99812.52
2018-07-20T17:04:28.731Z,99806.52
2018-07-20T17:06:59.567Z,99803.11
2018-07-20T17:09:30.219Z,99803.53
2018-07-20T17:12:00.994Z,99795.59
2018-07-20T17:14:31.751Z,99791.95
2018-07-20T17:17:02.586Z,99793.59
2018-07-20T17:19:33.287Z,99787.56
2018-07-20T17:22:04.125Z,99786.59
2018-07-20T17:24:34.769Z,99785.77
2018-07-20T17:27:05.545Z,99786.93
2018-07-20T17:29:36.462Z,99786.72
2018-07-20T17:32:07.301Z,99780.34
2018-07-20T17:34:37.946Z,99782.88
2018-07-20T17:37:08.662Z,99781.88
2018-07-20T17:39:39.406Z,99782.17
2018-07-20T17:42:10.387Z,99781.13
2018-07-20T17:44:41.148Z,99778.39
2018-07-20T17:47:11.999Z,99775.03
2018-07-20T17:49:42.766Z,99777.92
2018-07-20T17:52:13.452Z,99780.80
2018-07-20T17:54:44.231Z,99774.93
2018-07-20T17:57:14.922Z,99778.44
2018-07-20T17:59:45.679Z,99780.22
2018-07-20T18:02:16.438Z,99777.88
2018-07-20T18:04:47.149Z,99777.19
2018-07-20T18:07:17.901Z,99781.73
2018-07-20T18:09:48.620Z,99781.16
2018-07-20T18:12:19.330Z,99780.15
2018-07-20T18:14:50.077Z,99786.98
2018-07-20T18:17:20.815Z,99789.69
2018-07-20T18:19:52.182Z,99789.38
2018-07-20T18:22:22.914Z,99794.59
2018-07-20T18:24:53.587Z,99786.86
2018-07-20T18:27:24.472Z,99787.13
2018-07-20T18:29:55.096Z,99785.22
2018-07-20T18:32:26.161Z,99788.03
2018-07-20T18:34:57.329Z,99787.83
2018-07-20T18:37:28.054Z,99798.69
2018-07-20T18:39:58.734Z,99796.95
2018-07-20T18:42:30.109Z,99799.45
2018-07-20T18:45:00.800Z,99800.88
2018-07-20T18:47:31.499Z,99808.53
2018-07-20T18:50:02.630Z,99802.86
2018-07-20T18:52:34.136Z,99798.88
2018-07-20T18:55:04.926Z,99801.84
2018-07-20T18:57:36.228Z,99798.89
2018-07-20T19:00:07.668Z,99809.67
2018-07-20T19:02:38.641Z,99807.58
2018-07-20T19:05:09.376Z,99808.28
2018-07-20T19:07:40.174Z,99807.69
2018-07-20T19:10:10.993Z,99813.84
2018-07-20T19:12:41.735Z,99808.68
2018-07-20T19:15:12.413Z,99812.98
2018-07-20T19:17:43.234Z,99814.26
2018-07-20T19:20:13.914Z,99819.55
2018-07-20T19:23:15.070Z,99820.81
2018-07-20T19:25:45.738Z,99821.89
2018-07-20T19:28:16.084Z,99829.65
2018-07-20T19:30:47.061Z,99839.66
2018-07-20T19:33:17.735Z,99840.20
2018-07-20T19:35:48.447Z,99838.38
2018-07-20T19:38:19.081Z,99840.57
2018-07-20T19:40:49.720Z,99849.86
2018-07-20T19:43:20.402Z,99852.61
2018-07-20T19:45:51.051Z,99858.86
2018-07-20T19:48:21.686Z,99856.52
2018-07-20T19:50:52.338Z,99854.35
2018-07-20T19:53:22.956Z,99857.26
2018-07-20T19:55:53.584Z,99857.25
2018-07-20T19:58:24.255Z,99869.58
2018-07-20T20:00:54.890Z,99868.89
2018-07-20T20:03:25.570Z,99870.09
2018-07-20T20:05:56.178Z,99881.26
2018-07-20T20:08:26.847Z,99891.69
2018-07-20T20:10:57.636Z,99884.80
2018-07-20T20:13:28.307Z,99884.13
2018-07-20T20:15:58.992Z,99894.56
2018-07-20T20:18:29.669Z,99892.20
2018-07-20T20:21:00.292Z,99896.78
2018-07-20T20:23:30.959Z,99897.31
2018-07-20T20:26:01.603Z,99900.52
2018-07-20T20:28:32.307Z,99898.82
2018-07-20T20:31:02.964Z,99904.05
2018-07-20T20:33:33.867Z,99913.16
2018-07-20T20:36:04.536Z,99909.63
2018-07-20T20:38:35.218Z,99912.34
2018-07-20T20:41:05.878Z,99924.27
2018-07-20T20:43:36.547Z,99912.16
2018-07-20T20:46:07.395Z,99920.92
2018-07-20T20:48:38.125Z,99904.94
2018-07-20T20:51:08.498Z,99902.02
2018-07-20T20:53:39.109Z,99895.64
2018-07-20T20:56:09.732Z,99893.10
2018-07-20T20:58:40.508Z,99879.97
2018-07-20T21:01:11.188Z,99875.58
2018-07-20T21:03:41.819Z,99868.63
2018-07-20T21:06:12.539Z,99872.45
2018-07-20T21:08:43.207Z,99861.33
2018-07-20T21:11:13.887Z,99853.56
2018-07-20T21:13:44.564Z,99853.55
2018-07-20T21:16:15.230Z,99849.31
2018-07-20T21:18:45.889Z,99849.13
2018-07-20T21:21:16.605Z,99841.37
2018-07-20T21:23:47.268Z,99843.70
2018-07-20T21:26:18.137Z,99843.87
2018-07-20T21:28:48.860Z,99846.73
2018-07-20T21:31:19.550Z,99853.09
2018-07-20T21:33:50.275Z,99855.59
2018-07-20T21:36:20.968Z,99855.28
2018-07-20T21:38:51.639Z,99845.68
2018-07-20T21:41:22.322Z,99844.52
2018-07-20T21:43:53.020Z,99842.70
2018-07-20T21:46:23.676Z,99845.52
2018-07-20T21:48:54.363Z,99842.83
2018-07-20T21:51:25.056Z,99838.61
2018-07-20T21:53:55.786Z,99835.23
2018-07-20T21:56:26.592Z,99835.41
2018-07-20T21:58:57.313Z,99837.22
2018-07-20T22:01:28.064Z,99844.33
2018-07-20T22:04:05.296Z,99844.82
2018-07-20T22:06:36.011Z,99852.00
2018-07-20T22:09:10.229Z,99847.11
2018-07-20T22:11:40.929Z,99856.67
2018-07-20T22:14:11.666Z,99850.62
2018-07-20T22:16:42.405Z,99855.98
2018-07-20T22:19:12.772Z,99856.63
2018-07-20T22:21:43.368Z,99869.08
2018-07-20T22:24:14.149Z,99866.69
2018-07-20T22:26:44.893Z,99863.98
2018-07-20T22:29:15.606Z,99865.33
2018-07-20T22:31:46.311Z,99870.38
2018-07-20T22:34:17.017Z,99863.48
2018-07-20T22:36:47.695Z,99856.21
2018-07-20T22:39:18.372Z,99857.54
2018-07-20T22:41:49.028Z,99843.40
2018-07-20T22:44:19.707Z,99843.88
2018-07-20T22:46:50.400Z,99844.16
2018-07-20T22:49:21.144Z,99838.41
2018-07-20T22:51:51.885Z,99836.36
2018-07-20T22:54:22.595Z,99839.68
2018-07-20T22:56:53.232Z,99842.17
2018-07-20T22:59:24.005Z,99837.62
2018-07-20T23:01:54.638Z,99835.93
2018-07-20T23:04:25.320Z,99837.05
2018-07-20T23:06:56.166Z,99832.02
2018-07-20T23:09:26.923Z,99831.95
2018-07-20T23:11:57.893Z,99819.05
2018-07-20T23:14:28.723Z,99821.89
2018-07-20T23:16:59.384Z,99817.23
2018-07-20T23:19:30.096Z,99818.72
2018-07-20T23:22:00.755Z,99822.55
2018-07-20T23:24:31.460Z,99825.41
2018-07-20T23:27:01.773Z,99817.03
2018-07-20T23:29:32.339Z,99817.52
2018-07-20T23:32:03.989Z,99818.99
2018-07-20T23:34:34.694Z,99818.31
2018-07-20T23:37:05.429Z,99820.67
2018-07-20T23:39:36.155Z,99818.50
2018-07-20T23:42:06.894Z,99819.35
2018-07-20T23:44:37.610Z,99821.55
2018-07-20T23:47:08.372Z,99822.53
2018-07-20T23:49:39.038Z,99822.53
2018-07-20T23:52:09.738Z,99830.58
2018-07-20T23:54:40.438Z,99828.91
2018-07-20T23:57:11.129Z,99821.84
2018-07-20T23:59:41.894Z,99820.86
